Time;durP1;ratioP1;P1;durP2;ratioP2;P2;SDS_P1;SDS_P2;PMS_P1;PMS_P2;Temp;Humidity;BMP_temperature;BMP_pressure;BME280_temperature;BME280_humidity;BME280_pressure;Samples;Min_cycle;Max_cycle;Signal;HPM_P1;HPM_P2
2021/12/05 00:23:10;;;;;;;62.85;15.68;;;5.40;99.90;;;;;;5034266;28;20490;-71
2021/12/05 00:25:37;;;;;;;56.92;16.55;;;5.40;99.90;;;;;;5016945;28;20056;-72
2021/12/05 00:31:21;;;;;;;51.65;13.90;;;5.40;99.90;;;;;;5036073;28;20052;-71
2021/12/05 00:34:21;;;;;;;58.03;15.27;;;5.30;99.90;;;;;;5028101;28;20166;-72
2021/12/05 01:14:37;;;;;;;30.65;11.77;;;5.50;99.90;;;;;;5023478;28;20056;-72
2021/12/05 01:17:04;;;;;;;35.97;12.98;;;5.20;99.90;;;;;;5035036;28;20440;-72
2021/12/05 01:19:32;;;;;;;33.38;12.52;;;5.30;99.90;;;;;;5024382;28;20344;-73
2021/12/05 01:22:09;;;;;;;33.05;12.75;;;5.30;99.90;;;;;;5037914;28;20116;-71
2021/12/05 01:29:55;;;;;;;32.78;11.93;;;5.30;99.90;;;;;;5011208;28;20072;-73
2021/12/05 01:32:46;;;;;;;33.92;12.35;;;5.20;99.90;;;;;;5008637;28;20411;-71
2021/12/05 02:01:39;;;;;;;43.63;17.90;;;5.30;99.90;;;;;;5013686;28;20052;-71
2021/12/05 02:15:37;;;;;;;37.45;15.38;;;5.10;99.90;;;;;;5018153;28;20106;-72
2021/12/05 02:40:09;;;;;;;28.38;12.55;;;4.90;99.90;;;;;;5035043;28;20055;-73
2021/12/05 02:42:48;;;;;;;31.40;11.90;;;5.40;99.90;;;;;;5034051;28;20065;-72
2021/12/05 02:45:14;;;;;;;27.60;10.45;;;5.00;99.90;;;;;;5033911;28;20052;-72
2021/12/05 02:47:48;;;;;;;25.38;10.60;;;5.00;99.90;;;;;;5051421;28;20052;-72
2021/12/05 02:50:14;;;;;;;22.90;9.90;;;5.00;99.90;;;;;;5033426;28;20078;-72
2021/12/05 02:52:42;;;;;;;25.73;10.27;;;5.00;99.90;;;;;;5016485;28;20061;-72
2021/12/05 02:55:22;;;;;;;23.35;10.52;;;5.00;99.90;;;;;;5033500;28;20041;-72
2021/12/05 02:57:52;;;;;;;25.08;10.60;;;4.90;99.90;;;;;;5030640;28;20041;-72
2021/12/05 03:00:36;;;;;;;23.20;10.40;;;5.50;99.90;;;;;;5002253;28;20051;-72
2021/12/05 03:03:03;;;;;;;28.63;11.23;;;4.90;99.90;;;;;;5032758;28;20575;-73
2021/12/05 03:05:29;;;;;;;22.58;10.20;;;4.90;99.90;;;;;;5010472;28;20067;-72
2021/12/05 03:08:00;;;;;;;28.17;9.82;;;5.00;99.90;;;;;;5034577;28;20041;-72
2021/12/05 03:10:27;;;;;;;21.20;10.57;;;5.00;99.90;;;;;;5016738;28;20051;-72
2021/12/05 03:12:52;;;;;;;18.88;9.07;;;5.50;99.90;;;;;;5030287;28;20486;-73
2021/12/05 03:15:20;;;;;;;18.85;9.88;;;5.00;99.90;;;;;;5015649;28;20128;-72
2021/12/05 03:17:46;;;;;;;20.50;9.50;;;5.20;99.90;;;;;;5016954;28;20075;-72
2021/12/05 03:20:14;;;;;;;18.90;9.32;;;4.90;99.90;;;;;;5034060;28;20045;-72
2021/12/05 03:22:40;;;;;;;24.48;9.55;;;5.00;99.90;;;;;;5016233;28;20076;-71
2021/12/05 03:25:07;;;;;;;24.02;10.63;;;4.90;99.90;;;;;;5017861;28;20284;-72
2021/12/05 03:27:34;;;;;;;18.83;8.52;;;4.90;99.90;;;;;;5034568;28;20116;-73
2021/12/05 03:30:01;;;;;;;23.63;9.43;;;5.50;99.90;;;;;;5043437;28;20045;-74
2021/12/05 03:32:27;;;;;;;18.90;8.82;;;5.00;99.90;;;;;;5046848;28;20040;-72
2021/12/05 03:34:53;;;;;;;23.92;11.00;;;5.00;99.90;;;;;;5034141;28;20118;-72
2021/12/05 03:37:19;;;;;;;22.25;9.55;;;5.00;99.90;;;;;;5046909;28;20511;-72
2021/12/05 03:39:44;;;;;;;24.85;10.38;;;5.00;99.90;;;;;;5017247;28;20045;-71
2021/12/05 03:42:10;;;;;;;26.98;11.20;;;5.20;99.90;;;;;;5046489;28;20471;-72
2021/12/05 03:44:37;;;;;;;26.70;11.70;;;5.30;99.90;;;;;;5019622;28;20052;-72
2021/12/05 03:47:06;;;;;;;32.78;11.55;;;5.10;99.90;;;;;;5015612;28;20041;-72
2021/12/05 03:49:32;;;;;;;28.05;11.35;;;5.10;99.90;;;;;;5049570;28;20099;-73
2021/12/05 03:52:03;;;;;;;31.42;12.55;;;5.20;99.90;;;;;;5031972;28;20055;-73
2021/12/05 03:54:30;;;;;;;26.92;10.90;;;5.10;99.90;;;;;;5041579;28;20063;-72
2021/12/05 03:56:56;;;;;;;34.35;13.23;;;5.20;99.90;;;;;;5016391;28;20088;-72
2021/12/05 03:59:27;;;;;;;30.45;12.57;;;5.70;99.90;;;;;;5048226;28;20060;-72
2021/12/05 04:01:53;;;;;;;31.00;12.90;;;5.10;99.90;;;;;;5033317;28;20060;-72
2021/12/05 04:04:19;;;;;;;23.42;12.40;;;5.10;99.90;;;;;;5028429;28;20045;-72
2021/12/05 04:06:46;;;;;;;30.00;12.82;;;5.10;99.90;;;;;;5048952;28;20056;-72
2021/12/05 04:09:13;;;;;;;36.75;13.70;;;5.30;99.90;;;;;;5043837;28;20087;-72
2021/12/05 04:11:45;;;;;;;31.05;13.07;;;5.30;99.90;;;;;;5033117;28;20059;-72
2021/12/05 04:14:13;;;;;;;35.28;13.48;;;5.10;99.90;;;;;;5039791;28;20103;-72
2021/12/05 04:16:40;;;;;;;30.83;12.75;;;5.10;99.90;;;;;;5023141;28;20055;-71
2021/12/05 04:19:07;;;;;;;37.47;14.55;;;5.40;99.90;;;;;;5031808;28;20043;-72
2021/12/05 04:21:35;;;;;;;34.70;14.57;;;5.40;99.90;;;;;;5050657;28;20409;-72
2021/12/05 04:24:04;;;;;;;37.70;15.63;;;5.20;99.90;;;;;;5040850;28;20461;-72
2021/12/05 04:26:30;;;;;;;32.20;13.98;;;5.00;99.90;;;;;;5054699;28;20508;-74
2021/12/05 04:28:56;;;;;;;40.65;15.43;;;5.30;99.90;;;;;;5055438;28;20049;-72
2021/12/05 04:31:22;;;;;;;40.28;15.23;;;5.00;99.90;;;;;;5045164;28;20071;-72
2021/12/05 04:33:50;;;;;;;33.65;14.65;;;5.00;99.90;;;;;;5046911;28;20041;-71
2021/12/05 04:36:16;;;;;;;37.15;16.23;;;5.30;99.90;;;;;;5054670;28;20512;-72
2021/12/05 04:38:42;;;;;;;37.28;15.80;;;5.20;99.90;;;;;;5036199;28;20040;-71
2021/12/05 04:41:07;;;;;;;34.53;14.45;;;4.90;99.90;;;;;;5069515;28;20044;-73
2021/12/05 04:43:39;;;;;;;36.92;15.75;;;4.90;99.90;;;;;;5037811;28;20053;-72
2021/12/05 04:46:09;;;;;;;39.03;16.33;;;4.90;99.90;;;;;;5014299;28;20044;-74
2021/12/05 04:48:35;;;;;;;40.28;16.08;;;5.10;99.90;;;;;;5055141;28;20527;-72
2021/12/05 04:51:01;;;;;;;35.88;16.25;;;4.90;99.90;;;;;;5039946;28;20174;-73
2021/12/05 04:53:28;;;;;;;33.13;15.40;;;4.90;99.90;;;;;;5048621;28;20048;-72
2021/12/05 04:55:56;;;;;;;39.25;16.80;;;5.00;99.90;;;;;;5024522;28;20064;-72
2021/12/05 04:58:22;;;;;;;34.35;14.73;;;4.90;99.90;;;;;;5050697;28;20063;-72
2021/12/05 05:00:48;;;;;;;34.13;15.35;;;4.90;99.90;;;;;;5028483;28;20067;-72
2021/12/05 05:03:15;;;;;;;39.70;15.43;;;4.90;99.90;;;;;;5047697;28;20037;-72
2021/12/05 05:05:48;;;;;;;37.53;15.80;;;4.90;99.90;;;;;;5046584;28;20048;-72
2021/12/05 05:08:14;;;;;;;34.63;14.48;;;4.90;99.90;;;;;;5023980;28;20044;-72
2021/12/05 05:10:40;;;;;;;30.33;15.55;;;4.90;99.90;;;;;;5022649;28;20048;-72
2021/12/05 05:13:07;;;;;;;36.00;15.73;;;4.90;99.90;;;;;;5044822;28;20252;-72
2021/12/05 05:15:33;;;;;;;34.97;14.73;;;5.10;99.90;;;;;;5049412;28;20057;-71
2021/12/05 05:18:01;;;;;;;39.40;16.10;;;4.90;99.90;;;;;;5038948;28;20102;-71
2021/12/05 05:44:58;;;;;;;29.05;12.70;;;4.90;99.90;;;;;;5023251;28;20124;-72
2021/12/05 05:47:28;;;;;;;29.00;12.55;;;5.10;99.90;;;;;;5037173;28;20140;-72
2021/12/05 05:52:22;;;;;;;29.35;11.70;;;4.80;99.90;;;;;;5038393;28;20047;-72
2021/12/05 05:54:49;;;;;;;24.58;11.02;;;4.80;99.90;;;;;;5055585;28;20041;-72
2021/12/05 05:57:36;;;;;;;30.48;11.00;;;4.80;99.90;;;;;;5039689;28;20051;-71
2021/12/05 06:00:11;;;;;;;25.48;11.02;;;4.80;99.90;;;;;;5039699;28;20040;-71
2021/12/05 06:05:22;;;;;;;29.17;11.25;;;4.90;99.90;;;;;;5022122;28;20084;-72
2021/12/05 06:07:48;;;;;;;33.17;11.48;;;5.20;99.90;;;;;;5034630;28;20045;-70
2021/12/05 06:10:26;;;;;;;22.85;9.88;;;4.80;99.90;;;;;;5034473;28;20064;-70
2021/12/05 06:12:52;;;;;;;24.02;9.90;;;4.80;99.90;;;;;;5030988;28;20056;-70
2021/12/05 06:15:20;;;;;;;23.85;10.38;;;5.60;99.90;;;;;;5006135;28;20127;-70
2021/12/05 06:17:46;;;;;;;29.95;11.15;;;4.70;99.90;;;;;;5034436;28;20053;-70
2021/12/05 06:20:18;;;;;;;27.40;10.57;;;4.70;99.90;;;;;;5008987;28;20048;-70
2021/12/05 06:22:45;;;;;;;26.52;10.48;;;4.80;99.90;;;;;;5018960;28;20036;-71
2021/12/05 06:25:19;;;;;;;29.02;10.68;;;4.70;99.90;;;;;;5034069;28;20508;-70
2021/12/05 06:27:46;;;;;;;24.30;9.80;;;4.70;99.90;;;;;;5037718;28;20036;-71
2021/12/05 06:30:20;;;;;;;27.48;10.27;;;4.70;99.90;;;;;;5019759;28;20083;-70
2021/12/05 06:46:24;;;;;;;29.67;10.02;;;4.60;99.90;;;;;;5037600;28;20076;-71
2021/12/05 06:48:50;;;;;;;24.58;9.80;;;4.70;99.90;;;;;;5034695;28;20056;-70
2021/12/05 06:51:24;;;;;;;23.23;9.30;;;4.60;99.90;;;;;;5007501;28;20041;-71
2021/12/05 06:53:50;;;;;;;21.88;9.25;;;4.60;99.90;;;;;;5036755;28;20083;-70
2021/12/05 06:56:16;;;;;;;25.17;8.25;;;4.60;99.90;;;;;;5035428;28;20048;-72
2021/12/05 06:58:42;;;;;;;21.58;8.43;;;4.60;99.90;;;;;;5036491;28;20048;-71
2021/12/05 07:01:10;;;;;;;22.60;8.32;;;4.60;99.90;;;;;;5035341;28;20094;-71
2021/12/05 07:03:40;;;;;;;19.25;7.90;;;4.60;99.90;;;;;;5034310;28;20414;-71
2021/12/05 07:08:36;;;;;;;18.65;7.75;;;4.60;99.90;;;;;;5034246;28;20053;-71
2021/12/05 07:12:14;;;;;;;19.65;8.60;;;4.90;99.90;;;;;;5018167;28;20052;-71
2021/12/05 07:19:29;;;;;;;23.23;8.75;;;4.60;99.90;;;;;;5035867;28;20378;-71
2021/12/05 07:21:59;;;;;;;26.63;8.82;;;5.10;99.90;;;;;;5034253;28;20131;-72
2021/12/05 07:24:49;;;;;;;20.15;7.97;;;4.60;99.90;;;;;;5033673;28;20052;-71
2021/12/05 07:41:14;;;;;;;24.75;9.13;;;5.10;99.90;;;;;;5045724;28;20102;-73
2021/12/05 07:43:40;;;;;;;23.40;9.25;;;4.60;99.90;;;;;;5044870;28;20493;-71
2021/12/05 07:46:07;;;;;;;25.27;8.85;;;4.90;99.90;;;;;;5040084;28;20051;-71
2021/12/05 07:48:36;;;;;;;23.45;8.10;;;4.70;99.90;;;;;;5036509;28;20131;-71
2021/12/05 07:51:13;;;;;;;26.92;8.70;;;4.60;99.90;;;;;;5048779;28;20049;-72
2021/12/05 07:53:52;;;;;;;23.92;9.07;;;4.50;99.90;;;;;;5034661;28;20401;-72
2021/12/05 07:56:28;;;;;;;27.25;8.88;;;4.60;99.90;;;;;;5048099;28;20044;-70
2021/12/05 08:15:43;;;;;;;29.80;10.38;;;4.60;99.90;;;;;;5021947;28;20053;-72
2021/12/05 08:18:09;;;;;;;28.90;8.60;;;4.60;99.90;;;;;;5027457;28;20040;-71
2021/12/05 08:20:39;;;;;;;30.10;10.68;;;4.60;99.90;;;;;;5049408;28;20037;-71
2021/12/05 08:23:06;;;;;;;30.10;10.70;;;4.60;99.90;;;;;;5038086;28;20052;-71
2021/12/05 08:25:35;;;;;;;28.00;9.93;;;4.60;99.90;;;;;;5031215;28;20068;-71
2021/12/05 08:28:18;;;;;;;32.03;10.98;;;4.60;99.90;;;;;;5055314;28;20044;-71
2021/12/05 08:30:48;;;;;;;30.00;11.25;;;4.60;99.90;;;;;;5023302;28;20406;-71
2021/12/05 08:36:35;;;;;;;34.00;11.10;;;4.70;99.90;;;;;;5046049;28;20060;-71
2021/12/05 09:20:32;;;;;;;31.83;12.10;;;5.00;99.90;;;;;;5036530;28;20445;-71
2021/12/05 10:03:36;;;;;;;33.10;11.20;;;5.80;99.90;;;;;;5023723;28;20053;-72
2021/12/05 10:11:38;;;;;;;28.02;10.90;;;5.30;99.90;;;;;;5029116;28;20486;-72
2021/12/05 10:16:58;;;;;;;29.95;11.48;;;5.30;99.90;;;;;;5016767;28;20122;-73
2021/12/05 10:38:54;;;;;;;36.63;13.18;;;5.50;99.90;;;;;;5013539;28;20454;-72
2021/12/05 10:44:08;;;;;;;30.08;11.68;;;5.60;99.90;;;;;;5130571;27;1304525;-69
2021/12/05 10:46:35;;;;;;;28.77;11.85;;;6.10;99.90;;;;;;5137133;27;20039;-71
2021/12/05 10:49:07;;;;;;;33.08;11.80;;;5.60;99.90;;;;;;5123221;27;20054;-72
2021/12/05 10:51:37;;;;;;;27.98;11.45;;;5.60;99.90;;;;;;5136712;27;20046;-71
2021/12/05 10:54:17;;;;;;;29.27;12.10;;;5.60;99.90;;;;;;5150694;27;20065;-70
2021/12/05 10:56:53;;;;;;;33.33;12.18;;;5.60;99.90;;;;;;5144747;27;20099;-70
2021/12/05 10:59:29;;;;;;;36.38;12.85;;;6.00;99.90;;;;;;5116197;27;20063;-70
2021/12/05 11:01:59;;;;;;;29.80;11.23;;;5.70;99.90;;;;;;5124069;27;20050;-70
2021/12/05 11:04:31;;;;;;;24.50;9.90;;;5.70;99.90;;;;;;5123037;27;20046;-71
2021/12/05 11:07:08;;;;;;;31.25;12.68;;;5.70;99.90;;;;;;5126882;27;20046;-70
2021/12/05 11:09:37;;;;;;;29.80;11.30;;;5.70;99.90;;;;;;5152122;27;20047;-70
2021/12/05 11:12:05;;;;;;;26.58;11.25;;;5.70;99.90;;;;;;5134940;27;20391;-71
2021/12/05 11:14:41;;;;;;;33.58;11.55;;;5.70;99.90;;;;;;5146257;27;20053;-69
2021/12/05 11:17:13;;;;;;;30.77;11.23;;;5.70;99.90;;;;;;5140656;27;20089;-70
2021/12/05 11:20:06;;;;;;;27.48;11.20;;;5.70;99.90;;;;;;5128969;27;20464;-70
2021/12/05 11:22:36;;;;;;;30.80;11.88;;;5.70;99.90;;;;;;5137706;27;20406;-70
2021/12/05 11:25:12;;;;;;;27.58;11.15;;;5.80;99.90;;;;;;5139841;27;20039;-71
2021/12/05 11:27:41;;;;;;;30.27;10.75;;;5.80;99.90;;;;;;5132419;27;20050;-71
2021/12/05 11:30:10;;;;;;;30.17;10.57;;;5.90;99.90;;;;;;5123441;27;20050;-70
2021/12/05 11:32:42;;;;;;;27.52;11.40;;;5.90;99.90;;;;;;5124894;27;20047;-70
2021/12/05 11:35:16;;;;;;;25.77;11.13;;;5.90;99.90;;;;;;5137193;27;20110;-72
2021/12/05 11:38:00;;;;;;;27.23;11.43;;;5.90;99.90;;;;;;5137914;27;20039;-70
2021/12/05 11:40:40;;;;;;;31.38;11.80;;;6.00;99.90;;;;;;5123043;27;20042;-71
2021/12/05 11:43:06;;;;;;;29.27;11.68;;;6.10;99.90;;;;;;5118129;27;20058;-71
2021/12/05 11:45:50;;;;;;;29.80;10.57;;;6.10;99.90;;;;;;5136350;27;20079;-72
2021/12/05 11:48:23;;;;;;;29.13;11.57;;;6.20;99.90;;;;;;5135695;27;20039;-71
2021/12/05 11:50:49;;;;;;;28.65;11.75;;;6.20;99.90;;;;;;5141803;27;20043;-70
2021/12/05 11:53:31;;;;;;;27.35;11.30;;;6.20;99.90;;;;;;5118135;27;20047;-70
2021/12/05 11:55:57;;;;;;;27.60;11.45;;;6.30;99.90;;;;;;5104383;27;20511;-70
2021/12/05 11:58:23;;;;;;;26.45;11.32;;;7.20;99.90;;;;;;5119049;27;20063;-69
2021/12/05 12:00:49;;;;;;;26.98;10.95;;;6.50;99.90;;;;;;5118801;27;20050;-70
2021/12/05 12:03:28;;;;;;;29.52;11.20;;;6.70;99.90;;;;;;5108426;27;20039;-70
2021/12/05 12:05:53;;;;;;;25.15;10.63;;;6.80;99.90;;;;;;5119613;27;20040;-71
2021/12/05 12:08:19;;;;;;;25.30;10.55;;;6.90;99.90;;;;;;5105486;27;20131;-70
2021/12/05 12:10:58;;;;;;;29.77;11.13;;;7.00;99.90;;;;;;5106618;28;20373;-70
2021/12/05 12:13:34;;;;;;;24.13;10.02;;;7.10;99.90;;;;;;5126552;27;20476;-70
2021/12/05 12:16:06;;;;;;;20.65;9.00;;;7.10;99.90;;;;;;5122939;27;20101;-71
2021/12/05 12:18:36;;;;;;;24.85;10.38;;;7.20;99.90;;;;;;5117503;27;20579;-71
2021/12/05 12:21:13;;;;;;;20.35;10.45;;;7.20;99.90;;;;;;5113036;28;20052;-70
2021/12/05 12:23:40;;;;;;;20.77;9.45;;;7.20;99.90;;;;;;5123481;27;20126;-71
2021/12/05 12:26:08;;;;;;;21.77;10.48;;;7.20;99.90;;;;;;5116912;27;20051;-71
2021/12/05 12:28:35;;;;;;;22.20;9.82;;;7.40;99.90;;;;;;5128155;27;20047;-70
2021/12/05 12:31:31;;;;;;;20.70;9.32;;;7.40;99.90;;;;;;5128372;27;20048;-70
2021/12/05 12:34:02;;;;;;;18.58;9.38;;;7.40;99.90;;;;;;5108843;27;20182;-70
2021/12/05 12:36:43;;;;;;;17.87;9.30;;;7.40;99.90;;;;;;5133754;27;20070;-70
2021/12/05 12:39:21;;;;;;;18.80;8.77;;;7.50;99.90;;;;;;5116104;27;20289;-71
2021/12/05 12:42:02;;;;;;;15.02;7.95;;;7.50;99.90;;;;;;5114435;27;20054;-70
2021/12/05 12:44:29;;;;;;;13.93;7.78;;;7.50;99.90;;;;;;5130384;27;20043;-70
2021/12/05 12:46:57;;;;;;;17.48;9.02;;;7.50;99.90;;;;;;5122338;27;20050;-70
2021/12/05 12:49:30;;;;;;;17.40;8.77;;;7.40;99.90;;;;;;5117871;27;20047;-70
2021/12/05 12:52:06;;;;;;;16.40;8.40;;;7.40;99.90;;;;;;5126863;27;20285;-70
2021/12/05 12:54:32;;;;;;;19.00;8.50;;;7.30;99.90;;;;;;5123714;27;20046;-71
2021/12/05 12:57:03;;;;;;;12.45;7.25;;;7.30;99.90;;;;;;5115809;27;20047;-70
2021/12/05 12:59:35;;;;;;;15.10;7.85;;;7.30;99.90;;;;;;5122437;27;20047;-71
2021/12/05 13:05:24;;;;;;;15.27;7.88;;;7.30;99.90;;;;;;5117840;27;20055;-71
2021/12/05 13:10:45;;;;;;;16.70;8.30;;;7.30;99.90;;;;;;5112181;28;20063;-70
2021/12/05 13:13:26;;;;;;;19.75;8.43;;;7.20;99.90;;;;;;5105876;27;20127;-70
2021/12/05 13:15:53;;;;;;;19.30;8.63;;;7.40;99.90;;;;;;5120898;27;20091;-70
2021/12/05 13:18:29;;;;;;;18.65;7.88;;;7.30;99.90;;;;;;5117849;27;20054;-70
2021/12/05 13:21:09;;;;;;;17.10;8.02;;;7.30;99.90;;;;;;5118892;27;20127;-70
2021/12/05 13:23:52;;;;;;;12.80;8.07;;;7.20;99.90;;;;;;5112511;27;20063;-70
2021/12/05 13:26:20;;;;;;;15.88;8.27;;;7.20;99.90;;;;;;5129314;27;20043;-71
2021/12/05 13:29:12;;;;;;;18.00;8.20;;;7.20;99.90;;;;;;5124545;27;20047;-70
2021/12/05 13:31:53;;;;;;;18.98;8.27;;;7.20;99.90;;;;;;5126940;27;20047;-70
2021/12/05 13:34:22;;;;;;;17.25;8.65;;;7.20;99.90;;;;;;5111995;27;20096;-70
2021/12/05 13:37:06;;;;;;;19.08;8.10;;;7.10;99.90;;;;;;5094717;28;20052;-70
2021/12/05 13:39:41;;;;;;;16.35;8.90;;;7.10;99.90;;;;;;5099584;28;20126;-71
2021/12/05 13:42:19;;;;;;;16.00;9.07;;;7.10;99.90;;;;;;5096456;27;20043;-70
2021/12/05 13:45:00;;;;;;;21.67;10.65;;;7.10;99.90;;;;;;5124556;27;20046;-70
2021/12/05 13:47:34;;;;;;;16.95;9.40;;;7.10;99.90;;;;;;5128522;27;20456;-71
2021/12/05 13:50:25;;;;;;;22.45;10.32;;;7.00;99.90;;;;;;5117685;27;20046;-70
2021/12/05 13:53:03;;;;;;;21.48;10.82;;;7.20;99.90;;;;;;5117174;27;20047;-71
2021/12/05 13:55:53;;;;;;;19.27;10.43;;;7.00;99.90;;;;;;5115526;27;20043;-71
2021/12/05 13:58:25;;;;;;;18.15;9.95;;;6.90;99.90;;;;;;5117405;27;20479;-69
2021/12/05 14:01:03;;;;;;;;;;;6.80;99.90;;;;;;5107446;27;20046;-70
2021/12/05 14:03:59;;;;;;;17.60;11.02;;;6.80;99.90;;;;;;5133446;27;19919;-70
2021/12/05 14:06:37;;;;;;;19.08;9.85;;;6.80;99.90;;;;;;5133878;27;20115;-70
2021/12/05 14:09:22;;;;;;;15.80;9.07;;;6.80;99.90;;;;;;5126566;27;20031;-71
2021/12/05 14:12:08;;;;;;;20.05;10.43;;;6.70;99.90;;;;;;5127051;27;20039;-70
2021/12/05 14:14:44;;;;;;;20.20;9.55;;;6.70;99.90;;;;;;5115045;27;20126;-71
2021/12/05 14:17:20;;;;;;;20.42;10.07;;;6.70;99.90;;;;;;5118037;27;20047;-70
2021/12/05 14:19:52;;;;;;;20.83;9.85;;;6.70;99.90;;;;;;5113821;27;20047;-70
2021/12/05 14:22:21;;;;;;;23.15;10.25;;;6.60;99.90;;;;;;5123071;27;20054;-70
2021/12/05 14:24:52;;;;;;;21.05;9.82;;;6.60;99.90;;;;;;5117194;27;20035;-70
2021/12/05 14:27:22;;;;;;;23.55;10.18;;;6.60;99.90;;;;;;5103847;27;20038;-70
2021/12/05 14:29:49;;;;;;;20.52;9.68;;;6.50;99.90;;;;;;5127718;27;20416;-71
2021/12/05 14:32:25;;;;;;;19.50;10.02;;;6.50;99.90;;;;;;5122907;27;20035;-70
2021/12/05 14:34:54;;;;;;;23.00;10.07;;;6.50;99.90;;;;;;5124263;27;20043;-70
2021/12/05 14:37:22;;;;;;;23.30;11.48;;;6.60;99.90;;;;;;5126499;27;20513;-71
2021/12/05 14:39:55;;;;;;;26.10;11.57;;;6.40;99.90;;;;;;5103718;27;20619;-70
2021/12/05 14:42:23;;;;;;;23.02;11.90;;;6.60;99.90;;;;;;5097405;28;20829;-70
2021/12/05 14:44:52;;;;;;;25.27;11.80;;;6.30;99.90;;;;;;5103409;28;20043;-71
2021/12/05 14:47:22;;;;;;;25.05;11.07;;;6.30;99.90;;;;;;5114446;28;20053;-71
2021/12/05 14:49:54;;;;;;;22.92;10.73;;;6.20;99.90;;;;;;5098938;28;20047;-70
2021/12/05 14:52:30;;;;;;;23.83;11.13;;;6.20;99.90;;;;;;5112377;28;20127;-70
2021/12/05 14:54:56;;;;;;;25.98;11.63;;;6.20;99.90;;;;;;5100911;28;20044;-70
2021/12/05 14:57:26;;;;;;;23.45;10.70;;;6.70;99.90;;;;;;5110952;28;20483;-69
2021/12/05 15:00:07;;;;;;;24.27;10.63;;;6.10;99.90;;;;;;5113602;28;20797;-71
2021/12/05 15:02:34;;;;;;;29.00;11.35;;;6.10;99.90;;;;;;5114958;28;20170;-70
2021/12/05 15:04:59;;;;;;;24.17;10.90;;;6.10;99.90;;;;;;5098345;28;20370;-69
2021/12/05 15:07:26;;;;;;;22.48;10.80;;;6.10;99.90;;;;;;5082520;28;20134;-69
2021/12/05 15:09:56;;;;;;;23.95;11.05;;;6.10;99.90;;;;;;5111081;28;20048;-71
2021/12/05 15:12:28;;;;;;;26.77;10.55;;;6.00;99.90;;;;;;5092996;28;20043;-70
2021/12/05 15:14:57;;;;;;;23.70;10.38;;;6.00;99.90;;;;;;5122398;28;20048;-70
2021/12/05 15:17:28;;;;;;;25.63;12.13;;;6.10;99.90;;;;;;5112984;28;20047;-70
2021/12/05 15:20:00;;;;;;;29.17;12.82;;;6.00;99.90;;;;;;5123886;28;20082;-70
2021/12/05 15:22:27;;;;;;;27.50;11.68;;;6.00;99.90;;;;;;5093363;28;20515;-70
2021/12/05 15:25:00;;;;;;;35.42;13.68;;;5.90;99.90;;;;;;5110653;28;20051;-69
2021/12/05 15:27:28;;;;;;;29.05;12.85;;;5.90;99.90;;;;;;5107270;28;20039;-71
2021/12/05 15:29:58;;;;;;;26.55;12.80;;;5.90;99.90;;;;;;5122367;27;20074;-70
2021/12/05 15:32:28;;;;;;;36.65;13.75;;;5.90;99.90;;;;;;5116456;27;20058;-69
2021/12/05 15:34:57;;;;;;;30.08;12.75;;;5.80;99.90;;;;;;5126261;27;20058;-70
2021/12/05 15:37:24;;;;;;;30.80;13.50;;;5.80;99.90;;;;;;5097423;28;20130;-71
2021/12/05 15:39:53;;;;;;;30.10;13.80;;;5.70;99.90;;;;;;5106940;28;20051;-70
2021/12/05 15:42:25;;;;;;;31.05;14.32;;;5.70;99.90;;;;;;5113990;27;20059;-70
2021/12/05 15:44:53;;;;;;;33.28;14.77;;;5.60;99.90;;;;;;5123438;27;20086;-70
2021/12/05 15:47:28;;;;;;;29.77;14.48;;;5.60;99.90;;;;;;5132020;27;20086;-70
2021/12/05 15:50:00;;;;;;;31.13;14.85;;;5.60;99.90;;;;;;5105470;28;20051;-70
2021/12/05 15:52:31;;;;;;;38.92;17.02;;;5.60;99.90;;;;;;5113858;28;20478;-71
2021/12/05 15:54:57;;;;;;;34.35;16.75;;;5.60;99.90;;;;;;5114616;27;20105;-69
2021/12/05 15:57:31;;;;;;;41.05;17.40;;;5.50;99.90;;;;;;5134103;27;20050;-70
2021/12/05 15:59:59;;;;;;;40.92;18.13;;;5.50;99.90;;;;;;5128152;27;20505;-70
2021/12/05 16:02:25;;;;;;;41.45;17.95;;;5.50;99.90;;;;;;5120931;27;20392;-70
2021/12/05 16:04:51;;;;;;;41.25;18.58;;;5.50;99.90;;;;;;5106409;27;20050;-70
2021/12/05 16:07:17;;;;;;;38.58;19.48;;;5.50;99.90;;;;;;5096573;28;20059;-72
2021/12/05 16:09:45;;;;;;;39.60;19.35;;;5.70;99.90;;;;;;5091983;27;20103;-70
2021/12/05 16:12:17;;;;;;;44.17;19.98;;;5.50;99.90;;;;;;5079662;27;20540;-70
2021/12/05 16:14:52;;;;;;;42.42;19.02;;;5.50;99.90;;;;;;5104423;27;20044;-70
2021/12/05 16:17:25;;;;;;;42.42;19.38;;;5.40;99.90;;;;;;5103767;27;20043;-69
2021/12/05 16:20:13;;;;;;;41.92;19.13;;;5.40;99.90;;;;;;5128135;27;20462;-70
2021/12/05 16:23:04;;;;;;;45.00;20.08;;;5.40;99.90;;;;;;5127352;27;20050;-70
2021/12/05 16:25:31;;;;;;;;;;;5.40;99.90;;;;;;5122902;27;20043;-71
2021/12/05 16:28:02;;;;;;;37.15;16.83;;;5.30;99.90;;;;;;5103251;27;20355;-70
2021/12/05 16:30:32;;;;;;;36.05;18.23;;;5.30;99.90;;;;;;5127599;27;20050;-72
2021/12/05 16:33:00;;;;;;;41.25;18.45;;;5.30;99.90;;;;;;5107926;27;20043;-70
2021/12/05 16:35:41;;;;;;;38.65;19.17;;;5.30;99.90;;;;;;5124956;27;20119;-70
2021/12/05 16:38:23;;;;;;;56.47;22.33;;;5.30;99.90;;;;;;5120663;27;20047;-69
2021/12/05 16:41:11;;;;;;;49.83;22.17;;;5.20;99.90;;;;;;5124400;27;20126;-70
2021/12/05 16:43:46;;;;;;;44.80;20.42;;;5.20;99.90;;;;;;5117110;27;20051;-70
2021/12/05 16:46:36;;;;;;;44.72;18.38;;;5.20;99.90;;;;;;5113236;28;20051;-70
2021/12/05 16:49:08;;;;;;;41.53;19.58;;;5.20;99.90;;;;;;5098288;28;20060;-71
2021/12/05 16:51:36;;;;;;;42.85;20.40;;;5.20;99.90;;;;;;5121365;27;20053;-71
2021/12/05 16:54:17;;;;;;;35.63;17.10;;;5.10;99.90;;;;;;5123226;27;20096;-70
2021/12/05 16:57:11;;;;;;;35.22;16.83;;;5.10;99.90;;;;;;5132638;27;20078;-71
2021/12/05 16:59:37;;;;;;;38.15;17.20;;;5.10;99.90;;;;;;5113912;28;20071;-69
2021/12/05 17:02:13;;;;;;;32.22;15.90;;;5.00;99.90;;;;;;5117031;27;20039;-70
2021/12/05 17:05:03;;;;;;;35.78;16.60;;;5.00;99.90;;;;;;5115621;27;20048;-70
2021/12/05 17:08:16;;;;;;;34.25;16.50;;;5.00;99.90;;;;;;5123380;27;20044;-70
2021/12/05 17:11:04;;;;;;;35.45;17.10;;;4.90;99.90;;;;;;5095406;28;20186;-70
2021/12/05 17:13:35;;;;;;;36.15;16.58;;;4.90;99.90;;;;;;5131326;27;20439;-72
2021/12/05 17:16:20;;;;;;;34.58;16.40;;;4.80;99.90;;;;;;5120391;27;20043;-73
2021/12/05 17:18:58;;;;;;;33.85;16.02;;;4.70;99.90;;;;;;5120914;27;20055;-69
2021/12/05 17:21:29;;;;;;;36.53;16.23;;;4.60;99.90;;;;;;5114883;27;20038;-70
2021/12/05 17:24:07;;;;;;;33.03;15.40;;;4.60;99.90;;;;;;5123833;27;20538;-70
2021/12/05 17:26:39;;;;;;;33.40;15.75;;;4.60;99.90;;;;;;5132101;27;20543;-70
2021/12/05 17:29:17;;;;;;;35.22;16.10;;;4.60;99.90;;;;;;5118096;27;20400;-72
2021/12/05 17:31:46;;;;;;;35.45;16.02;;;4.60;99.90;;;;;;5115971;27;20064;-71
2021/12/05 17:34:19;;;;;;;36.55;16.55;;;4.50;99.90;;;;;;5117870;27;20042;-70
2021/12/05 17:37:03;;;;;;;36.85;16.80;;;4.60;99.90;;;;;;5122182;27;20379;-70
2021/12/05 17:39:33;;;;;;;34.00;15.80;;;4.70;99.90;;;;;;5112753;27;20044;-70
2021/12/05 17:42:04;;;;;;;34.67;16.58;;;4.50;99.90;;;;;;5111747;28;20407;-71
2021/12/05 17:44:30;;;;;;;33.35;15.68;;;4.50;99.90;;;;;;5124377;27;20052;-71
2021/12/05 17:46:58;;;;;;;37.90;16.75;;;4.50;99.90;;;;;;5108168;27;20105;-70
2021/12/05 17:49:27;;;;;;;34.55;14.65;;;4.50;99.90;;;;;;5115478;27;20031;-71
2021/12/05 17:51:55;;;;;;;32.28;15.15;;;4.50;99.90;;;;;;5122785;27;20134;-71
2021/12/05 17:54:29;;;;;;;34.50;15.27;;;4.70;99.90;;;;;;5132328;27;20164;-72
2021/12/05 17:56:56;;;;;;;32.08;15.55;;;4.50;99.90;;;;;;5129750;27;20035;-70
2021/12/05 18:04:36;;;;;;;31.55;16.13;;;4.40;99.90;;;;;;5123573;27;20055;-71
2021/12/05 18:07:02;;;;;;;34.75;16.50;;;4.40;99.90;;;;;;5130126;27;20046;-71
2021/12/05 18:09:28;;;;;;;35.15;15.38;;;4.50;99.90;;;;;;5127548;27;20047;-70
2021/12/05 18:11:54;;;;;;;34.35;16.58;;;4.40;99.90;;;;;;5108008;28;20050;-70
2021/12/05 18:14:20;;;;;;;36.08;16.38;;;4.50;99.90;;;;;;5115244;27;20047;-70
2021/12/05 18:16:46;;;;;;;36.28;15.93;;;4.40;99.90;;;;;;5099137;27;20120;-72
2021/12/05 18:19:16;;;;;;;38.95;17.30;;;4.20;99.90;;;;;;5111389;28;20453;-71
2021/12/05 18:21:42;;;;;;;39.17;17.77;;;4.60;99.90;;;;;;5113485;27;20131;-70
2021/12/05 18:24:12;;;;;;;39.53;18.73;;;4.80;99.90;;;;;;5122074;27;20051;-71
2021/12/05 18:26:41;;;;;;;39.63;18.95;;;4.60;99.90;;;;;;5120081;27;20092;-70
2021/12/05 18:29:09;;;;;;;43.80;18.45;;;4.30;99.90;;;;;;5118168;27;20044;-70
2021/12/05 18:31:35;;;;;;;38.45;19.23;;;4.30;99.90;;;;;;5117190;27;20050;-70
2021/12/05 18:34:06;;;;;;;47.05;19.25;;;4.30;99.90;;;;;;5123606;27;20095;-71
2021/12/05 18:36:34;;;;;;;45.95;19.73;;;4.30;99.90;;;;;;5105553;27;20035;-71
2021/12/05 18:39:01;;;;;;;45.53;20.38;;;4.30;99.90;;;;;;5100822;28;20051;-71
2021/12/05 18:41:28;;;;;;;48.35;21.05;;;4.30;99.90;;;;;;5098974;28;20054;-70